sensor_id;sensor_type;location;lat;lon;timestamp;temperature;humidity
13052;DHT22;6592;47.484;9.726;2024-03-22T00:00:02;10.90;99.90
13052;DHT22;6592;47.484;9.726;2024-03-22T00:02:31;10.90;99.90
13052;DHT22;6592;47.484;9.726;2024-03-22T00:04:58;10.80;99.90
13052;DHT22;6592;47.484;9.726;2024-03-22T00:07:25;10.80;99.90
13052;DHT22;6592;47.484;9.726;2024-03-22T00:09:52;10.80;99.90
13052;DHT22;6592;47.484;9.726;2024-03-22T00:12:19;10.80;99.90
13052;DHT22;6592;47.484;9.726;2024-03-22T00:14:45;10.80;99.90
13052;DHT22;6592;47.484;9.726;2024-03-22T00:17:12;10.80;99.90
13052;DHT22;6592;47.484;9.726;2024-03-22T00:19:40;10.70;99.90
13052;DHT22;6592;47.484;9.726;2024-03-22T00:22:07;10.80;99.90
13052;DHT22;6592;47.484;9.726;2024-03-22T00:24:33;10.80;99.90
13052;DHT22;6592;47.484;9.726;2024-03-22T00:27:01;10.80;99.90
13052;DHT22;6592;47.484;9.726;2024-03-22T00:29:27;10.70;99.90
13052;DHT22;6592;47.484;9.726;2024-03-22T00:31:54;10.70;99.90
13052;DHT22;6592;47.484;9.726;2024-03-22T00:34:20;10.70;99.90
13052;DHT22;6592;47.484;9.726;2024-03-22T00:36:49;10.70;99.90
13052;DHT22;6592;47.484;9.726;2024-03-22T00:39:17;10.60;99.90
13052;DHT22;6592;47.484;9.726;2024-03-22T00:41:44;10.60;99.90
13052;DHT22;6592;47.484;9.726;2024-03-22T00:44:10;10.60;99.90
13052;DHT22;6592;47.484;9.726;2024-03-22T00:46:37;10.60;99.90
13052;DHT22;6592;47.484;9.726;2024-03-22T00:49:03;10.70;99.90
13052;DHT22;6592;47.484;9.726;2024-03-22T00:51:31;10.60;99.90
13052;DHT22;6592;47.484;9.726;2024-03-22T00:53:58;10.60;99.90
13052;DHT22;6592;47.484;9.726;2024-03-22T00:56:26;10.50;99.90
13052;DHT22;6592;47.484;9.726;2024-03-22T00:58:52;10.50;99.90
13052;DHT22;6592;47.484;9.726;2024-03-22T01:01:19;10.50;99.90
13052;DHT22;6592;47.484;9.726;2024-03-22T01:03:46;10.50;99.90
13052;DHT22;6592;47.484;9.726;2024-03-22T01:06:13;10.50;99.90
13052;DHT22;6592;47.484;9.726;2024-03-22T01:08:39;10.50;99.90
13052;DHT22;6592;47.484;9.726;2024-03-22T01:11:08;10.40;99.90
13052;DHT22;6592;47.484;9.726;2024-03-22T01:13:34;10.40;99.90
13052;DHT22;6592;47.484;9.726;2024-03-22T01:16:01;10.40;99.90
13052;DHT22;6592;47.484;9.726;2024-03-22T01:18:27;10.30;99.90
13052;DHT22;6592;47.484;9.726;2024-03-22T01:20:54;10.30;99.90
13052;DHT22;6592;47.484;9.726;2024-03-22T01:23:21;10.20;99.90
13052;DHT22;6592;47.484;9.726;2024-03-22T01:25:48;10.20;99.90
13052;DHT22;6592;47.484;9.726;2024-03-22T01:28:15;10.20;99.90
13052;DHT22;6592;47.484;9.726;2024-03-22T01:30:43;10.20;99.90
13052;DHT22;6592;47.484;9.726;2024-03-22T01:33:09;10.20;99.90
13052;DHT22;6592;47.484;9.726;2024-03-22T01:35:37;10.20;99.90
13052;DHT22;6592;47.484;9.726;2024-03-22T01:38:03;10.20;99.90
13052;DHT22;6592;47.484;9.726;2024-03-22T01:40:30;10.10;99.90
13052;DHT22;6592;47.484;9.726;2024-03-22T01:42:57;10.10;99.90
13052;DHT22;6592;47.484;9.726;2024-03-22T01:45:27;10.10;99.90
13052;DHT22;6592;47.484;9.726;2024-03-22T01:47:56;10.00;99.90
13052;DHT22;6592;47.484;9.726;2024-03-22T01:50:24;10.00;99.90
13052;DHT22;6592;47.484;9.726;2024-03-22T01:52:51;10.00;99.90
13052;DHT22;6592;47.484;9.726;2024-03-22T01:55:18;10.00;99.90
13052;DHT22;6592;47.484;9.726;2024-03-22T01:57:44;10.00;99.90
13052;DHT22;6592;47.484;9.726;2024-03-22T02:00:12;9.80;99.90
13052;DHT22;6592;47.484;9.726;2024-03-22T02:02:40;9.80;99.90
13052;DHT22;6592;47.484;9.726;2024-03-22T02:05:14;9.70;99.90
13052;DHT22;6592;47.484;9.726;2024-03-22T02:07:41;9.70;99.90
13052;DHT22;6592;47.484;9.726;2024-03-22T02:10:10;9.60;99.90
13052;DHT22;6592;47.484;9.726;2024-03-22T02:12:37;9.60;99.90
13052;DHT22;6592;47.484;9.726;2024-03-22T02:15:05;9.60;99.90
13052;DHT22;6592;47.484;9.726;2024-03-22T02:17:32;9.60;99.90
13052;DHT22;6592;47.484;9.726;2024-03-22T02:20:02;9.60;99.90
13052;DHT22;6592;47.484;9.726;2024-03-22T02:22:29;9.60;99.90
13052;DHT22;6592;47.484;9.726;2024-03-22T02:24:58;9.60;99.90
13052;DHT22;6592;47.484;9.726;2024-03-22T02:27:25;9.60;99.90
13052;DHT22;6592;47.484;9.726;2024-03-22T02:29:52;9.60;99.90
13052;DHT22;6592;47.484;9.726;2024-03-22T02:32:19;9.60;99.90
13052;DHT22;6592;47.484;9.726;2024-03-22T02:34:46;9.60;99.90
13052;DHT22;6592;47.484;9.726;2024-03-22T02:37:12;9.60;99.90
13052;DHT22;6592;47.484;9.726;2024-03-22T02:39:39;9.60;99.90
13052;DHT22;6592;47.484;9.726;2024-03-22T02:42:07;9.60;99.90
13052;DHT22;6592;47.484;9.726;2024-03-22T02:44:35;9.50;99.90
13052;DHT22;6592;47.484;9.726;2024-03-22T02:47:04;9.40;99.90
13052;DHT22;6592;47.484;9.726;2024-03-22T02:49:31;9.50;99.90
13052;DHT22;6592;47.484;9.726;2024-03-22T02:51:57;9.40;99.90
13052;DHT22;6592;47.484;9.726;2024-03-22T02:54:25;9.30;99.90
13052;DHT22;6592;47.484;9.726;2024-03-22T02:56:51;9.20;99.90
13052;DHT22;6592;47.484;9.726;2024-03-22T02:59:20;9.10;99.90
13052;DHT22;6592;47.484;9.726;2024-03-22T03:01:46;9.20;99.90
13052;DHT22;6592;47.484;9.726;2024-03-22T03:04:13;9.10;99.90
13052;DHT22;6592;47.484;9.726;2024-03-22T03:06:39;9.00;99.90
13052;DHT22;6592;47.484;9.726;2024-03-22T03:09:06;9.00;99.90
13052;DHT22;6592;47.484;9.726;2024-03-22T03:11:34;8.90;99.90
13052;DHT22;6592;47.484;9.726;2024-03-22T03:14:01;8.90;99.90
13052;DHT22;6592;47.484;9.726;2024-03-22T03:16:29;8.90;99.90
13052;DHT22;6592;47.484;9.726;2024-03-22T03:18:56;8.90;99.90
13052;DHT22;6592;47.484;9.726;2024-03-22T03:21:22;8.90;99.90
13052;DHT22;6592;47.484;9.726;2024-03-22T03:23:49;8.90;99.90
13052;DHT22;6592;47.484;9.726;2024-03-22T03:26:16;8.90;99.90
13052;DHT22;6592;47.484;9.726;2024-03-22T03:28:43;9.00;99.90
13052;DHT22;6592;47.484;9.726;2024-03-22T03:31:09;9.00;99.90
13052;DHT22;6592;47.484;9.726;2024-03-22T03:33:38;8.90;99.90
13052;DHT22;6592;47.484;9.726;2024-03-22T03:36:04;8.80;99.90
13052;DHT22;6592;47.484;9.726;2024-03-22T03:38:32;8.70;99.90
13052;DHT22;6592;47.484;9.726;2024-03-22T03:40:58;8.70;99.90
13052;DHT22;6592;47.484;9.726;2024-03-22T03:43:25;8.70;99.90
13052;DHT22;6592;47.484;9.726;2024-03-22T03:45:51;8.60;99.90
13052;DHT22;6592;47.484;9.726;2024-03-22T03:48:20;8.60;99.90
13052;DHT22;6592;47.484;9.726;2024-03-22T03:50:52;8.40;99.90
13052;DHT22;6592;47.484;9.726;2024-03-22T03:53:20;8.40;99.90
13052;DHT22;6592;47.484;9.726;2024-03-22T03:55:47;8.30;99.90
13052;DHT22;6592;47.484;9.726;2024-03-22T03:58:14;8.30;99.90
13052;DHT22;6592;47.484;9.726;2024-03-22T04:00:40;8.30;99.90
13052;DHT22;6592;47.484;9.726;2024-03-22T04:03:07;8.30;99.90
13052;DHT22;6592;47.484;9.726;2024-03-22T04:05:33;8.30;99.90
13052;DHT22;6592;47.484;9.726;2024-03-22T04:08:02;8.30;99.90
13052;DHT22;6592;47.484;9.726;2024-03-22T04:10:29;8.40;99.90
13052;DHT22;6592;47.484;9.726;2024-03-22T04:12:56;8.40;99.90
13052;DHT22;6592;47.484;9.726;2024-03-22T04:15:22;8.50;99.90
13052;DHT22;6592;47.484;9.726;2024-03-22T04:17:49;8.50;99.90
13052;DHT22;6592;47.484;9.726;2024-03-22T04:20:16;8.50;99.90
13052;DHT22;6592;47.484;9.726;2024-03-22T04:22:43;8.50;99.90
13052;DHT22;6592;47.484;9.726;2024-03-22T04:25:11;8.60;99.90
13052;DHT22;6592;47.484;9.726;2024-03-22T04:27:38;8.50;99.90
13052;DHT22;6592;47.484;9.726;2024-03-22T04:30:06;8.50;99.90
13052;DHT22;6592;47.484;9.726;2024-03-22T04:32:33;8.50;99.90
13052;DHT22;6592;47.484;9.726;2024-03-22T04:35:00;8.60;99.90
13052;DHT22;6592;47.484;9.726;2024-03-22T04:37:27;8.60;99.90
13052;DHT22;6592;47.484;9.726;2024-03-22T04:39:54;8.60;99.90
13052;DHT22;6592;47.484;9.726;2024-03-22T04:42:23;8.60;99.90
13052;DHT22;6592;47.484;9.726;2024-03-22T04:44:49;8.70;99.90
13052;DHT22;6592;47.484;9.726;2024-03-22T04:47:16;8.70;99.90
13052;DHT22;6592;47.484;9.726;2024-03-22T04:49:42;8.80;99.90
13052;DHT22;6592;47.484;9.726;2024-03-22T04:52:09;8.80;99.90
13052;DHT22;6592;47.484;9.726;2024-03-22T04:54:36;8.70;99.90
13052;DHT22;6592;47.484;9.726;2024-03-22T04:57:03;8.70;99.90
13052;DHT22;6592;47.484;9.726;2024-03-22T04:59:31;8.70;99.90
13052;DHT22;6592;47.484;9.726;2024-03-22T05:01:58;8.60;99.90
13052;DHT22;6592;47.484;9.726;2024-03-22T05:04:24;8.70;99.90
13052;DHT22;6592;47.484;9.726;2024-03-22T05:06:51;8.70;99.90
13052;DHT22;6592;47.484;9.726;2024-03-22T05:09:18;8.70;99.90
13052;DHT22;6592;47.484;9.726;2024-03-22T05:11:45;8.70;99.90
13052;DHT22;6592;47.484;9.726;2024-03-22T05:14:15;8.60;99.90
13052;DHT22;6592;47.484;9.726;2024-03-22T05:16:44;8.50;99.90
13052;DHT22;6592;47.484;9.726;2024-03-22T05:19:10;8.40;99.90
13052;DHT22;6592;47.484;9.726;2024-03-22T05:21:37;8.30;99.90
13052;DHT22;6592;47.484;9.726;2024-03-22T05:24:04;8.30;99.90
13052;DHT22;6592;47.484;9.726;2024-03-22T05:26:31;8.20;99.90
13052;DHT22;6592;47.484;9.726;2024-03-22T05:28:58;8.20;99.90
13052;DHT22;6592;47.484;9.726;2024-03-22T05:31:25;8.10;99.90
13052;DHT22;6592;47.484;9.726;2024-03-22T05:33:52;8.20;99.90
13052;DHT22;6592;47.484;9.726;2024-03-22T05:36:20;8.20;99.90
13052;DHT22;6592;47.484;9.726;2024-03-22T05:38:46;8.30;99.90
13052;DHT22;6592;47.484;9.726;2024-03-22T05:41:13;8.30;99.90
13052;DHT22;6592;47.484;9.726;2024-03-22T05:43:39;8.40;99.90
13052;DHT22;6592;47.484;9.726;2024-03-22T05:46:07;8.40;99.90
13052;DHT22;6592;47.484;9.726;2024-03-22T05:48:33;8.50;99.90
13052;DHT22;6592;47.484;9.726;2024-03-22T05:51:01;8.60;99.90
13052;DHT22;6592;47.484;9.726;2024-03-22T05:53:28;8.70;99.90
13052;DHT22;6592;47.484;9.726;2024-03-22T05:55:55;8.80;99.90
13052;DHT22;6592;47.484;9.726;2024-03-22T05:58:21;9.00;99.90
13052;DHT22;6592;47.484;9.726;2024-03-22T06:00:48;9.10;99.90
13052;DHT22;6592;47.484;9.726;2024-03-22T06:03:14;9.20;99.90
13052;DHT22;6592;47.484;9.726;2024-03-22T06:05:42;9.50;99.90
13052;DHT22;6592;47.484;9.726;2024-03-22T06:08:09;9.90;99.90
13052;DHT22;6592;47.484;9.726;2024-03-22T06:10:37;10.30;99.90
13052;DHT22;6592;47.484;9.726;2024-03-22T06:13:03;10.80;99.90
13052;DHT22;6592;47.484;9.726;2024-03-22T06:15:31;10.80;99.90
13052;DHT22;6592;47.484;9.726;2024-03-22T06:17:57;10.90;99.90
13052;DHT22;6592;47.484;9.726;2024-03-22T06:20:24;10.80;99.90
13052;DHT22;6592;47.484;9.726;2024-03-22T06:22:50;10.40;99.90
13052;DHT22;6592;47.484;9.726;2024-03-22T06:25:19;10.30;99.90
13052;DHT22;6592;47.484;9.726;2024-03-22T06:27:45;10.30;99.90
13052;DHT22;6592;47.484;9.726;2024-03-22T06:30:13;10.80;99.90
13052;DHT22;6592;47.484;9.726;2024-03-22T06:32:39;11.60;99.90
13052;DHT22;6592;47.484;9.726;2024-03-22T06:35:07;12.10;99.90
13052;DHT22;6592;47.484;9.726;2024-03-22T06:37:33;12.00;99.90
13052;DHT22;6592;47.484;9.726;2024-03-22T06:40:00;12.40;99.90
13052;DHT22;6592;47.484;9.726;2024-03-22T06:42:28;12.70;99.90
13052;DHT22;6592;47.484;9.726;2024-03-22T06:44:55;12.80;99.90
13052;DHT22;6592;47.484;9.726;2024-03-22T06:47:21;13.30;99.90
13052;DHT22;6592;47.484;9.726;2024-03-22T06:49:49;14.00;99.90
13052;DHT22;6592;47.484;9.726;2024-03-22T06:52:15;14.50;99.90
13052;DHT22;6592;47.484;9.726;2024-03-22T06:54:44;14.80;99.90
13052;DHT22;6592;47.484;9.726;2024-03-22T06:57:10;14.60;99.90
13052;DHT22;6592;47.484;9.726;2024-03-22T06:59:39;15.10;99.90
13052;DHT22;6592;47.484;9.726;2024-03-22T07:02:05;16.00;99.90
13052;DHT22;6592;47.484;9.726;2024-03-22T07:04:32;16.80;99.90
13052;DHT22;6592;47.484;9.726;2024-03-22T07:06:59;16.90;99.90
13052;DHT22;6592;47.484;9.726;2024-03-22T07:09:26;16.40;99.90
13052;DHT22;6592;47.484;9.726;2024-03-22T07:11:54;16.90;99.90
13052;DHT22;6592;47.484;9.726;2024-03-22T07:14:21;17.40;99.90
13052;DHT22;6592;47.484;9.726;2024-03-22T07:16:51;17.00;99.90
13052;DHT22;6592;47.484;9.726;2024-03-22T07:19:19;16.80;99.90
13052;DHT22;6592;47.484;9.726;2024-03-22T07:21:46;16.80;99.90
13052;DHT22;6592;47.484;9.726;2024-03-22T07:24:14;16.60;99.90
13052;DHT22;6592;47.484;9.726;2024-03-22T07:26:40;16.50;99.90
13052;DHT22;6592;47.484;9.726;2024-03-22T07:29:07;16.60;99.90
13052;DHT22;6592;47.484;9.726;2024-03-22T07:31:33;16.50;99.90
13052;DHT22;6592;47.484;9.726;2024-03-22T07:34:02;16.80;99.90
13052;DHT22;6592;47.484;9.726;2024-03-22T07:36:30;17.40;99.90
13052;DHT22;6592;47.484;9.726;2024-03-22T07:38:57;17.50;99.90
13052;DHT22;6592;47.484;9.726;2024-03-22T07:41:24;18.00;99.90
13052;DHT22;6592;47.484;9.726;2024-03-22T07:43:51;18.40;99.90
13052;DHT22;6592;47.484;9.726;2024-03-22T07:46:17;18.60;99.90
13052;DHT22;6592;47.484;9.726;2024-03-22T07:48:45;18.90;99.90
13052;DHT22;6592;47.484;9.726;2024-03-22T07:51:12;18.90;99.90
13052;DHT22;6592;47.484;9.726;2024-03-22T07:53:39;19.00;99.90
13052;DHT22;6592;47.484;9.726;2024-03-22T07:56:06;19.00;99.90
13052;DHT22;6592;47.484;9.726;2024-03-22T07:58:33;19.10;99.90
13052;DHT22;6592;47.484;9.726;2024-03-22T08:00:59;20.10;99.90
13052;DHT22;6592;47.484;9.726;2024-03-22T08:03:26;20.10;99.90
13052;DHT22;6592;47.484;9.726;2024-03-22T08:05:53;19.10;99.90
13052;DHT22;6592;47.484;9.726;2024-03-22T08:08:21;19.10;99.90
13052;DHT22;6592;47.484;9.726;2024-03-22T08:10:48;19.40;99.90
13052;DHT22;6592;47.484;9.726;2024-03-22T08:13:15;19.20;99.90
13052;DHT22;6592;47.484;9.726;2024-03-22T08:15:41;19.20;99.90
13052;DHT22;6592;47.484;9.726;2024-03-22T08:18:09;19.80;99.90
13052;DHT22;6592;47.484;9.726;2024-03-22T08:20:35;20.80;99.90
13052;DHT22;6592;47.484;9.726;2024-03-22T08:23:04;20.60;99.90
13052;DHT22;6592;47.484;9.726;2024-03-22T08:25:32;20.70;99.90
13052;DHT22;6592;47.484;9.726;2024-03-22T08:27:59;21.40;99.90
13052;DHT22;6592;47.484;9.726;2024-03-22T08:30:26;21.80;99.90
13052;DHT22;6592;47.484;9.726;2024-03-22T08:32:53;21.80;99.90
13052;DHT22;6592;47.484;9.726;2024-03-22T08:35:19;21.50;99.90
13052;DHT22;6592;47.484;9.726;2024-03-22T08:37:46;21.10;99.90
13052;DHT22;6592;47.484;9.726;2024-03-22T08:40:13;20.80;99.90
13052;DHT22;6592;47.484;9.726;2024-03-22T08:42:42;21.00;99.90
13052;DHT22;6592;47.484;9.726;2024-03-22T08:45:09;20.80;99.90
13052;DHT22;6592;47.484;9.726;2024-03-22T08:47:36;20.40;99.90
13052;DHT22;6592;47.484;9.726;2024-03-22T08:50:03;20.80;99.90
13052;DHT22;6592;47.484;9.726;2024-03-22T08:52:30;20.70;99.90
13052;DHT22;6592;47.484;9.726;2024-03-22T08:54:57;20.80;99.90
13052;DHT22;6592;47.484;9.726;2024-03-22T08:57:25;21.00;99.90
13052;DHT22;6592;47.484;9.726;2024-03-22T08:59:52;21.00;99.90
13052;DHT22;6592;47.484;9.726;2024-03-22T09:02:20;21.30;99.90
13052;DHT22;6592;47.484;9.726;2024-03-22T09:04:47;21.40;99.90
13052;DHT22;6592;47.484;9.726;2024-03-22T09:07:14;21.80;99.90
13052;DHT22;6592;47.484;9.726;2024-03-22T09:09:40;22.10;99.90
13052;DHT22;6592;47.484;9.726;2024-03-22T09:12:08;22.30;99.90
13052;DHT22;6592;47.484;9.726;2024-03-22T09:14:34;24.00;99.90
13052;DHT22;6592;47.484;9.726;2024-03-22T09:17:03;25.80;99.90
13052;DHT22;6592;47.484;9.726;2024-03-22T09:19:29;26.90;99.90
13052;DHT22;6592;47.484;9.726;2024-03-22T09:21:57;27.80;99.90
13052;DHT22;6592;47.484;9.726;2024-03-22T09:24:23;28.70;96.90
13052;DHT22;6592;47.484;9.726;2024-03-22T09:26:51;29.60;93.60
13052;DHT22;6592;47.484;9.726;2024-03-22T09:29:17;30.50;92.20
13052;DHT22;6592;47.484;9.726;2024-03-22T09:31:44;31.50;90.20
13052;DHT22;6592;47.484;9.726;2024-03-22T09:34:13;32.20;83.90
13052;DHT22;6592;47.484;9.726;2024-03-22T09:36:41;32.80;79.60
13052;DHT22;6592;47.484;9.726;2024-03-22T09:39:08;33.40;74.90
13052;DHT22;6592;47.484;9.726;2024-03-22T09:41:42;33.90;71.50
13052;DHT22;6592;47.484;9.726;2024-03-22T09:44:13;33.70;66.90
13052;DHT22;6592;47.484;9.726;2024-03-22T09:46:40;33.80;65.30
13052;DHT22;6592;47.484;9.726;2024-03-22T09:49:09;33.90;64.00
13052;DHT22;6592;47.484;9.726;2024-03-22T09:51:39;34.20;63.30
13052;DHT22;6592;47.484;9.726;2024-03-22T09:54:06;34.20;63.40
13052;DHT22;6592;47.484;9.726;2024-03-22T09:56:34;34.60;61.80
13052;DHT22;6592;47.484;9.726;2024-03-22T09:59:01;34.80;61.80
13052;DHT22;6592;47.484;9.726;2024-03-22T10:01:29;34.50;59.20
13052;DHT22;6592;47.484;9.726;2024-03-22T10:03:55;34.60;58.40
13052;DHT22;6592;47.484;9.726;2024-03-22T10:06:23;34.80;57.30
13052;DHT22;6592;47.484;9.726;2024-03-22T10:08:50;34.70;55.00
13052;DHT22;6592;47.484;9.726;2024-03-22T10:11:17;33.80;56.70
13052;DHT22;6592;47.484;9.726;2024-03-22T10:13:44;34.00;58.60
13052;DHT22;6592;47.484;9.726;2024-03-22T10:16:12;33.30;56.20
13052;DHT22;6592;47.484;9.726;2024-03-22T10:18:39;33.10;58.30
13052;DHT22;6592;47.484;9.726;2024-03-22T10:21:06;33.10;58.00
13052;DHT22;6592;47.484;9.726;2024-03-22T10:23:32;33.60;58.30
13052;DHT22;6592;47.484;9.726;2024-03-22T10:26:01;34.30;57.50
13052;DHT22;6592;47.484;9.726;2024-03-22T10:28:27;34.70;55.90
13052;DHT22;6592;47.484;9.726;2024-03-22T10:30:55;35.10;55.40
13052;DHT22;6592;47.484;9.726;2024-03-22T10:33:21;34.70;56.40
13052;DHT22;6592;47.484;9.726;2024-03-22T10:35:52;34.40;56.90
13052;DHT22;6592;47.484;9.726;2024-03-22T10:38:19;34.50;56.90
13052;DHT22;6592;47.484;9.726;2024-03-22T10:40:47;34.60;56.10
13052;DHT22;6592;47.484;9.726;2024-03-22T10:43:15;34.50;56.30
13052;DHT22;6592;47.484;9.726;2024-03-22T10:45:42;33.90;56.30
13052;DHT22;6592;47.484;9.726;2024-03-22T10:48:12;34.30;56.30
13052;DHT22;6592;47.484;9.726;2024-03-22T10:50:40;34.90;56.00
13052;DHT22;6592;47.484;9.726;2024-03-22T10:53:11;35.10;55.40
13052;DHT22;6592;47.484;9.726;2024-03-22T10:55:43;35.70;55.20
13052;DHT22;6592;47.484;9.726;2024-03-22T10:58:16;35.80;54.60
13052;DHT22;6592;47.484;9.726;2024-03-22T11:00:44;35.90;54.10
13052;DHT22;6592;47.484;9.726;2024-03-22T11:03:10;36.10;54.00
13052;DHT22;6592;47.484;9.726;2024-03-22T11:05:45;35.60;54.00
13052;DHT22;6592;47.484;9.726;2024-03-22T11:08:11;35.80;53.10
13052;DHT22;6592;47.484;9.726;2024-03-22T11:10:39;36.40;52.10
13052;DHT22;6592;47.484;9.726;2024-03-22T11:13:06;37.00;52.40
13052;DHT22;6592;47.484;9.726;2024-03-22T11:15:35;37.20;51.00
13052;DHT22;6592;47.484;9.726;2024-03-22T11:18:02;36.90;49.90
13052;DHT22;6592;47.484;9.726;2024-03-22T11:20:29;36.50;51.40
13052;DHT22;6592;47.484;9.726;2024-03-22T11:22:56;36.50;51.10
13052;DHT22;6592;47.484;9.726;2024-03-22T11:25:24;36.50;51.80
13052;DHT22;6592;47.484;9.726;2024-03-22T11:27:50;35.90;49.90
13052;DHT22;6592;47.484;9.726;2024-03-22T11:30:18;35.90;50.70
13052;DHT22;6592;47.484;9.726;2024-03-22T11:32:45;35.00;50.50
13052;DHT22;6592;47.484;9.726;2024-03-22T11:35:13;35.40;50.20
13052;DHT22;6592;47.484;9.726;2024-03-22T11:37:41;35.60;49.80
13052;DHT22;6592;47.484;9.726;2024-03-22T11:40:09;35.80;50.80
13052;DHT22;6592;47.484;9.726;2024-03-22T11:42:36;36.20;51.00
13052;DHT22;6592;47.484;9.726;2024-03-22T11:45:05;36.20;49.40
13052;DHT22;6592;47.484;9.726;2024-03-22T11:47:33;36.50;49.80
13052;DHT22;6592;47.484;9.726;2024-03-22T11:50:02;36.70;48.50
13052;DHT22;6592;47.484;9.726;2024-03-22T11:52:29;37.00;49.70
13052;DHT22;6592;47.484;9.726;2024-03-22T11:54:56;36.60;48.30
13052;DHT22;6592;47.484;9.726;2024-03-22T11:57:23;36.30;48.10
13052;DHT22;6592;47.484;9.726;2024-03-22T11:59:51;36.10;49.10
13052;DHT22;6592;47.484;9.726;2024-03-22T12:02:17;36.10;50.40
13052;DHT22;6592;47.484;9.726;2024-03-22T12:04:46;36.40;50.60
13052;DHT22;6592;47.484;9.726;2024-03-22T12:07:15;36.80;48.80
13052;DHT22;6592;47.484;9.726;2024-03-22T12:09:42;36.90;47.80
13052;DHT22;6592;47.484;9.726;2024-03-22T12:12:10;36.80;49.40
13052;DHT22;6592;47.484;9.726;2024-03-22T12:14:38;36.70;47.10
13052;DHT22;6592;47.484;9.726;2024-03-22T12:17:04;36.60;48.10
13052;DHT22;6592;47.484;9.726;2024-03-22T12:19:32;36.50;47.60
13052;DHT22;6592;47.484;9.726;2024-03-22T12:21:58;36.30;47.10
13052;DHT22;6592;47.484;9.726;2024-03-22T12:24:27;36.10;46.60
13052;DHT22;6592;47.484;9.726;2024-03-22T12:26:53;35.90;46.20
13052;DHT22;6592;47.484;9.726;2024-03-22T12:29:21;35.70;46.70
13052;DHT22;6592;47.484;9.726;2024-03-22T12:31:47;35.70;47.70
13052;DHT22;6592;47.484;9.726;2024-03-22T12:34:15;35.70;46.90
13052;DHT22;6592;47.484;9.726;2024-03-22T12:36:41;35.60;46.40
13052;DHT22;6592;47.484;9.726;2024-03-22T12:39:09;35.60;47.10
13052;DHT22;6592;47.484;9.726;2024-03-22T12:41:36;35.90;46.80
13052;DHT22;6592;47.484;9.726;2024-03-22T12:44:04;35.80;46.50
13052;DHT22;6592;47.484;9.726;2024-03-22T12:46:30;35.70;46.50
13052;DHT22;6592;47.484;9.726;2024-03-22T12:48:57;35.40;46.50
13052;DHT22;6592;47.484;9.726;2024-03-22T12:51:24;34.80;47.40
13052;DHT22;6592;47.484;9.726;2024-03-22T12:53:51;34.70;48.20
13052;DHT22;6592;47.484;9.726;2024-03-22T12:56:18;34.50;49.00
13052;DHT22;6592;47.484;9.726;2024-03-22T12:58:47;34.70;48.00
13052;DHT22;6592;47.484;9.726;2024-03-22T13:01:13;34.20;46.80
13052;DHT22;6592;47.484;9.726;2024-03-22T13:03:41;34.00;48.30
13052;DHT22;6592;47.484;9.726;2024-03-22T13:06:07;33.80;49.00
13052;DHT22;6592;47.484;9.726;2024-03-22T13:08:34;33.50;50.00
13052;DHT22;6592;47.484;9.726;2024-03-22T13:11:01;33.60;49.20
13052;DHT22;6592;47.484;9.726;2024-03-22T13:13:28;33.70;49.00
13052;DHT22;6592;47.484;9.726;2024-03-22T13:15:58;33.80;49.20
13052;DHT22;6592;47.484;9.726;2024-03-22T13:18:28;34.00;47.90
13052;DHT22;6592;47.484;9.726;2024-03-22T13:20:54;33.70;49.30
13052;DHT22;6592;47.484;9.726;2024-03-22T13:23:22;33.70;50.10
13052;DHT22;6592;47.484;9.726;2024-03-22T13:25:48;34.00;49.10
13052;DHT22;6592;47.484;9.726;2024-03-22T13:28:16;33.90;48.70
13052;DHT22;6592;47.484;9.726;2024-03-22T13:30:46;34.00;48.80
13052;DHT22;6592;47.484;9.726;2024-03-22T13:33:14;34.20;47.70
13052;DHT22;6592;47.484;9.726;2024-03-22T13:35:41;34.50;47.80
13052;DHT22;6592;47.484;9.726;2024-03-22T13:38:08;34.60;48.20
13052;DHT22;6592;47.484;9.726;2024-03-22T13:40:39;34.80;48.70
13052;DHT22;6592;47.484;9.726;2024-03-22T13:43:07;34.90;47.10
13052;DHT22;6592;47.484;9.726;2024-03-22T13:45:39;34.90;47.50
13052;DHT22;6592;47.484;9.726;2024-03-22T13:48:10;34.70;46.70
13052;DHT22;6592;47.484;9.726;2024-03-22T13:50:38;34.90;46.40
13052;DHT22;6592;47.484;9.726;2024-03-22T13:53:06;35.00;47.00
13052;DHT22;6592;47.484;9.726;2024-03-22T13:55:33;34.80;46.20
13052;DHT22;6592;47.484;9.726;2024-03-22T13:58:00;34.30;46.80
13052;DHT22;6592;47.484;9.726;2024-03-22T14:00:27;34.50;46.50
13052;DHT22;6592;47.484;9.726;2024-03-22T14:02:54;34.60;45.40
13052;DHT22;6592;47.484;9.726;2024-03-22T14:05:22;34.60;45.40
13052;DHT22;6592;47.484;9.726;2024-03-22T14:07:52;34.50;45.50
13052;DHT22;6592;47.484;9.726;2024-03-22T14:10:19;34.20;44.90
13052;DHT22;6592;47.484;9.726;2024-03-22T14:12:46;34.00;45.60
13052;DHT22;6592;47.484;9.726;2024-03-22T14:15:14;34.00;45.50
13052;DHT22;6592;47.484;9.726;2024-03-22T14:17:42;33.60;45.00
13052;DHT22;6592;47.484;9.726;2024-03-22T14:20:09;33.60;44.70
13052;DHT22;6592;47.484;9.726;2024-03-22T14:22:38;33.40;45.10
13052;DHT22;6592;47.484;9.726;2024-03-22T14:25:07;33.20;45.30
13052;DHT22;6592;47.484;9.726;2024-03-22T14:27:35;33.20;45.80
13052;DHT22;6592;47.484;9.726;2024-03-22T14:30:02;33.30;45.40
13052;DHT22;6592;47.484;9.726;2024-03-22T14:32:32;33.20;44.50
13052;DHT22;6592;47.484;9.726;2024-03-22T14:34:58;32.90;44.30
13052;DHT22;6592;47.484;9.726;2024-03-22T14:37:25;32.60;43.40
13052;DHT22;6592;47.484;9.726;2024-03-22T14:39:52;32.20;43.90
13052;DHT22;6592;47.484;9.726;2024-03-22T14:42:20;31.70;44.50
13052;DHT22;6592;47.484;9.726;2024-03-22T14:44:47;31.20;45.20
13052;DHT22;6592;47.484;9.726;2024-03-22T14:47:14;30.90;46.10
13052;DHT22;6592;47.484;9.726;2024-03-22T14:49:40;31.20;45.60
13052;DHT22;6592;47.484;9.726;2024-03-22T14:52:08;31.60;45.50
13052;DHT22;6592;47.484;9.726;2024-03-22T14:54:34;31.90;44.80
13052;DHT22;6592;47.484;9.726;2024-03-22T14:57:02;32.10;44.40
13052;DHT22;6592;47.484;9.726;2024-03-22T14:59:29;32.60;44.70
13052;DHT22;6592;47.484;9.726;2024-03-22T15:01:57;33.10;43.00
13052;DHT22;6592;47.484;9.726;2024-03-22T15:04:23;33.30;42.70
13052;DHT22;6592;47.484;9.726;2024-03-22T15:06:50;33.60;43.00
13052;DHT22;6592;47.484;9.726;2024-03-22T15:09:17;33.90;42.10
13052;DHT22;6592;47.484;9.726;2024-03-22T15:11:44;34.00;42.50
13052;DHT22;6592;47.484;9.726;2024-03-22T15:14:12;34.30;40.60
13052;DHT22;6592;47.484;9.726;2024-03-22T15:16:40;34.40;41.30
13052;DHT22;6592;47.484;9.726;2024-03-22T15:19:08;34.10;41.50
13052;DHT22;6592;47.484;9.726;2024-03-22T15:21:35;34.00;40.80
13052;DHT22;6592;47.484;9.726;2024-03-22T15:24:03;33.80;41.60
13052;DHT22;6592;47.484;9.726;2024-03-22T15:26:30;33.80;41.40
13052;DHT22;6592;47.484;9.726;2024-03-22T15:28:57;33.80;41.70
13052;DHT22;6592;47.484;9.726;2024-03-22T15:31:23;33.80;41.20
13052;DHT22;6592;47.484;9.726;2024-03-22T15:33:52;33.90;41.00
13052;DHT22;6592;47.484;9.726;2024-03-22T15:36:18;33.80;40.20
13052;DHT22;6592;47.484;9.726;2024-03-22T15:38:45;33.60;41.20
13052;DHT22;6592;47.484;9.726;2024-03-22T15:41:11;33.30;41.20
13052;DHT22;6592;47.484;9.726;2024-03-22T15:43:40;33.10;41.00
13052;DHT22;6592;47.484;9.726;2024-03-22T15:46:06;32.90;41.70
13052;DHT22;6592;47.484;9.726;2024-03-22T15:48:34;32.60;41.30